Time;durP1;ratioP1;P1;durP2;ratioP2;P2;SDS_P1;SDS_P2;PMS_P1;PMS_P2;Temp;Humidity;BMP_temperature;BMP_pressure;BME280_temperature;BME280_humidity;BME280_pressure;Samples;Min_cycle;Max_cycle;Signal;HPM_P1;HPM_P2
2022/11/05 00:09:38;;;;;;;6.10;3.90;;;;;;;9.33;76.25;99083.28;7771741;32;37803;-79
2022/11/05 00:18:30;;;;;;;6.10;3.65;;;;;;;10.04;74.10;99071.06;7792204;32;39350;-80
2022/11/05 00:27:21;;;;;;;7.12;4.22;;;;;;;10.21;73.29;99072.53;7793481;32;38576;-80
2022/11/05 00:31:37;;;;;;;5.85;3.53;;;;;;;10.06;72.48;99068.88;7793535;32;37639;-80
2022/11/05 00:35:54;;;;;;;5.30;3.53;;;;;;;10.42;71.74;99070.50;7793585;32;40029;-80
2022/11/05 00:40:11;;;;;;;8.25;3.70;;;;;;;10.05;72.84;99075.41;7792563;32;40839;-80
2022/11/05 00:53:37;;;;;;;6.00;3.42;;;;;;;10.37;70.69;99086.87;7793327;32;40720;-80
2022/11/05 00:57:54;;;;;;;5.93;3.45;;;;;;;10.44;70.60;99079.97;7793277;32;39875;-80
2022/11/05 01:02:10;;;;;;;5.57;3.40;;;;;;;10.65;69.73;99085.22;7792427;32;38619;-79
2022/11/05 01:06:26;;;;;;;6.53;3.35;;;;;;;10.40;69.77;99073.50;7792656;32;37930;-79
2022/11/05 01:10:48;;;;;;;6.47;3.37;;;;;;;10.42;70.08;99076.75;7793216;32;39772;-80
2022/11/05 01:15:05;;;;;;;5.05;3.60;;;;;;;10.41;70.21;99082.47;7793071;32;39802;-80
2022/11/05 01:19:21;;;;;;;5.72;3.72;;;;;;;10.12;70.63;99086.81;7792300;32;38675;-80
2022/11/05 01:23:38;;;;;;;5.95;3.60;;;;;;;10.20;70.56;99084.56;7792820;32;37005;-80
2022/11/05 01:27:54;;;;;;;5.18;3.60;;;;;;;10.47;69.72;99090.31;7792931;32;39156;-79
2022/11/05 01:32:10;;;;;;;5.70;3.33;;;;;;;10.29;70.07;99091.81;7792796;32;39841;-79
2022/11/05 01:36:26;;;;;;;4.32;3.40;;;;;;;10.31;70.45;99096.97;7792720;32;38483;-78
2022/11/05 01:40:43;;;;;;;5.53;3.55;;;;;;;10.59;69.61;99097.25;7792636;32;37585;-79
2022/11/05 01:45:03;;;;;;;7.00;3.90;;;;;;;10.47;68.79;99092.22;7792757;32;39156;-78
2022/11/05 01:49:32;;;;;;;5.37;3.50;;;;;;;10.43;69.43;99093.91;7792811;32;40090;-78
2022/11/05 01:53:51;;;;;;;5.62;3.50;;;;;;;10.55;69.17;99097.03;7792496;32;37936;-79
2022/11/05 01:58:10;;;;;;;7.22;3.97;;;;;;;10.02;70.90;99095.06;7779150;32;37758;-79
2022/11/05 02:02:27;;;;;;;6.97;4.28;;;;;;;10.04;71.01;99087.41;7778710;32;39935;-79
2022/11/05 02:06:45;;;;;;;7.00;3.62;;;;;;;9.84;72.00;99084.84;7792560;32;40050;-78
2022/11/05 02:11:01;;;;;;;5.93;3.72;;;;;;;10.21;70.58;99086.16;7792100;32;38536;-78
2022/11/05 02:15:39;;;;;;;6.45;3.72;;;;;;;10.08;70.83;99083.00;7792313;32;36973;-79
2022/11/05 02:20:21;;;;;;;9.68;4.30;;;;;;;8.89;75.10;99101.16;7780145;32;39886;-79
2022/11/05 02:25:07;;;;;;;11.18;4.47;;;;;;;9.12;74.86;99093.44;7792095;32;39988;-78
2022/11/05 02:29:46;;;;;;;6.90;4.12;;;;;;;8.82;75.52;99093.28;7780371;32;37821;-79
2022/11/05 02:34:37;;;;;;;7.45;4.50;;;;;;;8.99;75.17;99090.25;7780455;32;36716;-78
2022/11/05 02:39:16;;;;;;;8.25;4.93;;;;;;;9.32;74.02;99096.06;7791909;32;40045;-79
2022/11/05 02:43:58;;;;;;;7.07;4.32;;;;;;;9.42;73.42;99095.19;7791631;32;40712;-78
2022/11/05 02:48:42;;;;;;;6.75;4.25;;;;;;;9.02;74.72;99095.13;7791935;32;37539;-78
2022/11/05 02:53:05;;;;;;;12.55;5.00;;;;;;;9.49;73.09;99092.97;7777889;32;36977;-78
2022/11/05 02:57:22;;;;;;;8.32;4.97;;;;;;;8.87;74.52;99088.94;7791446;32;39954;-77
2022/11/05 03:01:41;;;;;;;7.57;4.93;;;;;;;9.15;74.40;99092.91;7791654;32;39734;-78
2022/11/05 03:06:15;;;;;;;6.75;4.47;;;;;;;9.30;73.92;99089.28;7791493;32;38543;-77
2022/11/05 03:11:10;;;;;;;6.55;4.62;;;;;;;8.64;76.01;99093.87;7791128;32;37773;-78
2022/11/05 03:15:53;;;;;;;9.77;4.57;;;;;;;9.37;73.51;99100.66;7764988;32;38938;-76
2022/11/05 03:20:30;;;;;;;8.02;4.40;;;;;;;8.90;75.02;99097.34;7778717;32;39988;-77
2022/11/05 03:24:50;;;;;;;7.32;4.70;;;;;;;9.09;74.40;99088.56;7790577;32;37682;-77
2022/11/05 03:29:10;;;;;;;6.50;4.15;;;;;;;8.66;76.28;99097.16;7777386;32;36886;-77
2022/11/05 03:33:30;;;;;;;7.97;4.70;;;;;;;8.96;74.48;99093.50;7777151;32;39749;-77
2022/11/05 03:37:49;;;;;;;6.75;4.57;;;;;;;9.23;73.94;99094.19;7776865;32;40755;-77
2022/11/05 03:42:07;;;;;;;6.43;4.60;;;;;;;8.58;75.34;99111.31;7777015;32;37500;-76
2022/11/05 03:46:48;;;;;;;7.10;4.70;;;;;;;8.97;74.50;99116.91;7790593;32;36781;-77
2022/11/05 03:51:30;;;;;;;7.87;4.97;;;;;;;8.77;75.07;99112.31;7778140;32;39954;-77
2022/11/05 03:56:00;;;;;;;6.57;4.62;;;;;;;9.07;74.44;99115.22;7794002;32;39850;-77
2022/11/05 04:00:16;;;;;;;7.50;4.62;;;;;;;9.16;73.88;99108.13;7780470;32;38514;-77
2022/11/05 04:04:32;;;;;;;6.95;4.65;;;;;;;9.08;73.29;99123.09;7779947;32;36892;-78
2022/11/05 04:13:23;;;;;;;8.32;4.78;;;;;;;8.83;73.61;99126.75;7793079;32;40689;-78
2022/11/05 04:17:39;;;;;;;7.28;4.78;;;;;;;8.87;74.11;99135.97;7793533;32;37974;-77
2022/11/05 04:26:30;;;;;;;5.57;4.28;;;;;;;9.14;72.91;99135.59;7793716;32;39380;-79
2022/11/05 04:30:46;;;;;;;8.40;5.40;;;;;;;9.12;72.62;99126.88;7793581;32;39727;-79
2022/11/05 04:35:03;;;;;;;7.30;4.87;;;;;;;9.33;72.28;99122.19;7793474;32;37594;-78
2022/11/05 04:39:19;;;;;;;9.40;4.82;;;;;;;9.45;72.12;99123.75;7793602;32;37745;-79
2022/11/05 04:43:36;;;;;;;7.97;4.82;;;;;;;9.50;70.94;99121.81;7793356;32;39351;-78
2022/11/05 04:47:52;;;;;;;7.53;4.90;;;;;;;9.37;71.86;99128.69;7793485;32;40205;-78
2022/11/05 04:52:08;;;;;;;7.60;4.53;;;;;;;9.30;72.39;99122.75;7793334;32;37711;-78
2022/11/05 04:56:25;;;;;;;7.18;4.68;;;;;;;9.17;73.07;99101.59;7793270;32;37766;-79
2022/11/05 05:00:41;;;;;;;6.97;4.28;;;;;;;9.52;71.57;99118.81;7793347;32;39284;-79
2022/11/05 05:04:57;;;;;;;9.77;4.93;;;;;;;9.14;72.88;99134.75;7793092;32;40869;-79
2022/11/05 05:09:13;;;;;;;7.43;4.60;;;;;;;9.17;72.85;99126.84;7792846;32;37783;-80
2022/11/05 05:13:30;;;;;;;5.47;4.05;;;;;;;9.43;72.33;99121.31;7793044;32;37691;-78
2022/11/05 05:17:52;;;;;;;6.62;4.28;;;;;;;9.49;71.88;99133.00;7793106;32;40033;-78
2022/11/05 05:22:09;;;;;;;8.35;4.30;;;;;;;8.93;72.62;99134.84;7793061;32;41172;-78
2022/11/05 05:26:25;;;;;;;5.70;4.07;;;;;;;8.86;73.56;99128.88;7792714;32;37852;-79
2022/11/05 05:30:41;;;;;;;7.15;4.30;;;;;;;9.50;71.46;99132.72;7792985;32;36915;-78
2022/11/05 05:34:57;;;;;;;7.07;4.28;;;;;;;9.86;69.95;99137.91;7792575;32;40036;-78
2022/11/05 05:39:14;;;;;;;8.38;4.30;;;;;;;9.18;72.55;99146.72;7792148;32;40748;-79
2022/11/05 05:43:31;;;;;;;5.90;3.95;;;;;;;9.19;72.20;99151.06;7776907;32;37738;-77
2022/11/05 05:47:47;;;;;;;6.80;4.30;;;;;;;9.71;70.69;99155.16;7792671;32;36863;-78
2022/11/05 05:52:04;;;;;;;5.90;4.30;;;;;;;9.54;70.57;99160.16;7792774;32;40044;-78
2022/11/05 05:56:20;;;;;;;7.03;4.15;;;;;;;9.32;71.41;99153.19;7792585;32;39935;-79
2022/11/05 06:00:36;;;;;;;7.37;4.40;;;;;;;9.54;70.31;99163.69;7792531;32;38570;-79
2022/11/05 06:04:52;;;;;;;6.95;4.53;;;;;;;9.47;70.57;99174.09;7792355;32;37000;-78
2022/11/05 06:09:08;;;;;;;6.65;4.40;;;;;;;9.07;72.44;99186.75;7792556;32;39030;-78
2022/11/05 06:13:25;;;;;;;7.40;4.43;;;;;;;9.18;71.47;99190.25;7792160;32;39765;-79
2022/11/05 06:17:43;;;;;;;6.55;4.12;;;;;;;9.10;71.79;99205.22;7791432;32;39289;-78
2022/11/05 06:21:59;;;;;;;6.10;3.90;;;;;;;9.52;70.79;99205.88;7792071;32;36967;-78
2022/11/05 06:26:17;;;;;;;6.90;4.12;;;;;;;9.46;70.61;99217.88;7791970;32;40154;-79
2022/11/05 06:30:33;;;;;;;6.87;4.00;;;;;;;9.48;70.40;99221.94;7792197;32;40718;-78
2022/11/05 06:34:49;;;;;;;5.97;3.90;;;;;;;9.73;70.05;99223.75;7792007;32;37875;-77
2022/11/05 06:39:10;;;;;;;6.35;4.12;;;;;;;9.34;70.49;99235.31;7788336;32;37710;-79
2022/11/05 06:43:27;;;;;;;7.12;4.00;;;;;;;9.53;70.86;99237.44;7791497;32;39221;-78
2022/11/05 06:47:43;;;;;;;5.90;4.20;;;;;;;9.00;72.13;99237.84;7791402;32;40770;-78
2022/11/05 06:51:59;;;;;;;5.72;3.87;;;;;;;9.78;70.79;99242.78;7791578;32;38574;-80
2022/11/05 06:56:15;;;;;;;6.70;3.80;;;;;;;9.83;70.22;99238.37;7790687;32;37694;-81
2022/11/05 07:00:31;;;;;;;7.85;3.95;;;;;;;9.96;69.56;99248.66;7791439;32;39179;-80
2022/11/05 07:04:48;;;;;;;5.78;3.95;;;;;;;10.04;69.17;99250.00;7790887;32;39935;-80
2022/11/05 07:09:04;;;;;;;6.12;3.83;;;;;;;10.22;68.58;99253.97;7787680;32;37490;-80
2022/11/05 07:13:20;;;;;;;7.30;4.05;;;;;;;9.77;71.68;99257.47;7787562;32;37605;-75
2022/11/05 07:17:36;;;;;;;6.22;3.85;;;;;;;10.26;72.38;99257.75;7788039;32;39879;-76
2022/11/05 07:21:52;;;;;;;5.40;3.25;;;;;;;10.39;69.28;99254.41;7789690;32;40081;-76
2022/11/05 07:26:08;;;;;;;5.18;3.40;;;;;;;10.42;69.74;99253.06;7791454;32;37659;-77
2022/11/05 07:30:25;;;;;;;5.37;3.85;;;;;;;10.72;69.69;99254.72;7794248;32;36803;-82
2022/11/05 07:34:41;;;;;;;4.55;3.40;;;;;;;10.58;67.98;99256.47;7794194;32;39943;-82
2022/11/05 07:38:57;;;;;;;5.12;3.47;;;;;;;10.68;66.68;99253.66;7794293;32;39999;-82
2022/11/05 07:43:15;;;;;;;4.25;3.28;;;;;;;9.87;69.70;99253.91;7794127;32;37832;-81
2022/11/05 07:47:31;;;;;;;4.90;3.40;;;;;;;9.72;69.98;99262.13;7794282;32;37093;-82
2022/11/05 07:51:48;;;;;;;5.10;3.45;;;;;;;9.86;69.75;99265.06;7794143;32;39350;-81
2022/11/05 07:56:04;;;;;;;5.40;3.37;;;;;;;10.03;69.12;99254.63;7793936;32;39951;-81
2022/11/05 08:00:23;;;;;;;4.90;3.30;;;;;;;10.22;68.78;99249.31;7780127;32;37946;-81
2022/11/05 08:04:41;;;;;;;4.62;3.30;;;;;;;9.93;69.25;99244.63;7793967;32;36988;-80
2022/11/05 08:08:57;;;;;;;5.20;3.58;;;;;;;9.84;69.44;99250.91;7793961;32;40688;-81
2022/11/05 08:13:14;;;;;;;5.25;3.60;;;;;;;9.93;70.21;99260.13;7793688;32;39941;-80
2022/11/05 08:17:31;;;;;;;3.25;2.67;;;;;;;10.08;68.61;99262.75;7793622;32;37706;-80
2022/11/05 08:21:47;;;;;;;6.30;3.40;;;;;;;9.42;71.05;99273.94;7793775;32;36890;-81
2022/11/05 08:26:03;;;;;;;5.00;3.35;;;;;;;9.53;70.81;99262.75;7793594;32;39257;-81
2022/11/05 08:30:19;;;;;;;4.22;3.33;;;;;;;9.87;70.02;99253.09;7793551;32;39968;-82
2022/11/05 08:34:35;;;;;;;4.43;3.33;;;;;;;10.15;69.29;99252.38;7793206;32;38652;-81
2022/11/05 08:38:52;;;;;;;6.35;3.50;;;;;;;10.27;69.26;99248.50;7792692;32;37967;-81
2022/11/05 08:43:09;;;;;;;5.10;3.50;;;;;;;10.31;69.24;99247.69;7793179;32;39942;-81
2022/11/05 08:47:25;;;;;;;6.50;3.60;;;;;;;10.69;68.39;99255.28;7793039;32;40041;-82
2022/11/05 08:51:44;;;;;;;4.35;3.37;;;;;;;10.51;68.57;99265.78;7792945;32;38086;-82
2022/11/05 08:56:00;;;;;;;3.70;2.90;;;;;;;10.50;69.65;99258.72;7779038;32;37725;-80
2022/11/05 09:00:16;;;;;;;5.25;3.45;;;;;;;10.57;68.25;99260.28;7792968;32;39958;-81
2022/11/05 09:04:32;;;;;;;5.43;3.55;;;;;;;9.87;70.99;99272.94;7792942;32;39748;-81
2022/11/05 09:08:49;;;;;;;6.62;3.92;;;;;;;10.48;69.16;99268.25;7792798;32;37568;-80
2022/11/05 09:13:05;;;;;;;6.00;3.58;;;;;;;10.60;69.06;99276.87;7792883;32;36922;-79
2022/11/05 09:17:21;;;;;;;5.82;3.65;;;;;;;10.80;70.89;99281.38;7792993;32;40022;-78
2022/11/05 09:21:37;;;;;;;5.03;3.58;;;;;;;10.67;68.91;99290.19;7792696;32;40858;-79
2022/11/05 09:25:54;;;;;;;4.62;3.53;;;;;;;10.57;69.48;99273.91;7792358;32;38828;-78
2022/11/05 09:30:11;;;;;;;4.75;3.75;;;;;;;10.98;68.25;99279.84;7792568;32;36362;-78
2022/11/05 09:34:28;;;;;;;5.15;3.87;;;;;;;11.36;66.90;99266.34;7778698;32;39175;-79
2022/11/05 09:38:44;;;;;;;6.12;3.90;;;;;;;11.14;66.77;99274.22;7792452;32;39950;-78
2022/11/05 09:43:01;;;;;;;5.72;3.80;;;;;;;10.82;68.17;99276.44;7792578;32;37997;-78
2022/11/05 09:47:41;;;;;;;6.32;3.80;;;;;;;11.26;67.97;99270.03;7778533;32;36904;-79
2022/11/05 09:51:58;;;;;;;6.78;4.53;;;;;;;11.04;67.73;99267.78;7779760;32;39197;-79
2022/11/05 09:56:30;;;;;;;6.60;4.18;;;;;;;10.93;68.13;99276.34;7792375;32;40015;-79
2022/11/05 10:00:49;;;;;;;5.50;4.22;;;;;;;11.03;67.62;99281.72;7779876;32;38627;-79
2022/11/05 10:05:08;;;;;;;6.53;4.00;;;;;;;11.43;67.28;99268.75;7792042;32;36976;-80
2022/11/05 10:09:46;;;;;;;4.65;3.60;;;;;;;11.65;66.73;99258.09;7792216;32;39232;-80
2022/11/05 10:14:17;;;;;;;5.82;3.95;;;;;;;11.83;65.66;99256.53;7780209;32;39818;-79
2022/11/05 10:18:38;;;;;;;8.88;5.12;;;;;;;11.50;66.13;99263.75;7779407;32;38631;-80
2022/11/05 10:22:57;;;;;;;7.25;4.47;;;;;;;11.21;66.73;99261.06;7792194;32;37722;-80
2022/11/05 10:27:35;;;;;;;6.37;3.90;;;;;;;11.74;65.70;99254.72;7763682;32;39978;-78
2022/11/05 10:31:54;;;;;;;4.15;3.28;;;;;;;11.30;66.49;99253.87;7764063;32;40884;-80
2022/11/05 10:36:15;;;;;;;4.15;3.12;;;;;;;11.40;65.82;99261.13;7760776;32;38464;-81
2022/11/05 10:40:45;;;;;;;5.37;3.62;;;;;;;11.68;65.11;99258.66;7763196;32;36932;-81
2022/11/05 10:45:10;;;;;;;6.22;3.83;;;;;;;11.75;65.22;99273.56;7763293;32;39991;-81
2022/11/05 10:49:57;;;;;;;6.65;3.75;;;;;;;12.33;63.63;99253.41;7764439;32;40772;-81
2022/11/05 10:54:20;;;;;;;4.10;3.25;;;;;;;12.44;63.17;99256.00;7763541;32;37834;-80
2022/11/05 10:58:40;;;;;;;;;;;;;;;12.52;62.28;99256.13;7764839;32;37514;-81
2022/11/05 11:03:02;;;;;;;5.18;3.17;;;;;;;12.14;63.34;99258.03;7763168;32;40151;-80
2022/11/05 11:07:24;;;;;;;5.30;3.65;;;;;;;12.53;62.89;99252.25;7763051;32;39660;-80
2022/11/05 11:11:41;;;;;;;4.90;3.45;;;;;;;12.33;62.76;99253.41;7762350;32;36863;-81
2022/11/05 11:16:15;;;;;;;5.20;3.45;;;;;;;12.86;62.21;99257.75;7761492;32;36972;-80
2022/11/05 11:20:32;;;;;;;4.05;3.03;;;;;;;12.43;62.66;99271.56;7760915;32;39342;-80
2022/11/05 11:24:52;;;;;;;5.25;2.78;;;;;;;12.75;61.63;99272.72;7761203;32;339786;-80
2022/11/05 11:29:27;;;;;;;20.88;9.07;;;;;;;13.21;61.61;99271.09;7777440;32;37628;-81
2022/11/05 11:33:49;;;;;;;7.07;4.22;;;;;;;13.00;60.88;99257.78;7777189;32;37884;-80
2022/11/05 11:38:06;;;;;;;10.93;5.60;;;;;;;13.38;61.65;99249.44;7777039;32;39259;-80
2022/11/05 11:42:33;;;;;;;10.70;5.05;;;;;;;12.95;60.95;99247.75;7790641;32;40815;-80
2022/11/05 11:46:52;;;;;;;8.30;4.15;;;;;;;13.12;61.17;99246.34;7790514;32;37902;-80
2022/11/05 11:51:40;;;;;;;14.25;7.75;;;;;;;13.34;60.33;99262.13;7776925;32;36802;-81
2022/11/05 11:56:05;;;;;;;11.48;5.57;;;;;;;13.38;60.45;99260.38;7775276;32;39990;-80
2022/11/05 12:00:24;;;;;;;21.92;10.95;;;;;;;13.47;59.25;99250.38;7789831;32;39751;-80
2022/11/05 12:05:02;;;;;;;9.80;5.85;;;;;;;13.33;60.50;99247.63;7776264;32;37729;-80
2022/11/05 12:09:39;;;;;;;15.52;9.95;;;;;;;13.25;60.94;99270.19;7788929;32;36924;-81
2022/11/05 12:14:23;;;;;;;4.68;3.50;;;;;;;13.40;60.54;99263.66;7791300;32;40014;-81
2022/11/05 12:19:04;;;;;;;6.43;3.97;;;;;;;13.41;60.49;99268.00;7785296;32;39766;-80
2022/11/05 12:23:32;;;;;;;2.75;2.42;;;;;;;13.56;59.47;99274.31;7793539;32;37709;-79
2022/11/05 12:28:33;;;;;;;23.30;14.02;;;;;;;13.73;58.46;99271.78;7793370;32;36835;-80
2022/11/05 12:33:26;;;;;;;16.58;9.45;;;;;;;13.69;59.36;99270.75;7793525;32;38935;-79
2022/11/05 12:38:26;;;;;;;30.85;17.80;;;;;;;14.19;58.92;99267.22;7758368;32;40638;-80
2022/11/05 12:42:57;;;;;;;10.43;5.50;;;;;;;13.68;58.19;99269.13;7782713;32;38067;-77
2022/11/05 12:47:26;;;;;;;12.60;7.18;;;;;;;13.84;59.23;99278.66;7792891;32;37143;-79
2022/11/05 12:52:04;;;;;;;4.87;3.03;;;;;;;13.87;58.04;99288.19;7766187;32;39996;-79
2022/11/05 12:56:30;;;;;;;9.43;5.53;;;;;;;13.52;58.79;99298.72;7775231;32;39927;-80
2022/11/05 13:00:51;;;;;;;4.47;2.50;;;;;;;13.65;57.99;99294.38;7795397;32;39470;-79
2022/11/05 13:05:28;;;;;;;4.65;2.65;;;;;;;13.17;60.06;99287.31;7779685;32;36908;-79
2022/11/05 13:09:53;;;;;;;3.87;2.30;;;;;;;13.41;59.52;99287.16;7793343;32;39097;-80
2022/11/05 13:14:32;;;;;;;5.35;2.08;;;;;;;13.88;58.29;99290.63;7819016;32;40745;-81
2022/11/05 13:18:52;;;;;;;3.67;2.47;;;;;;;13.86;58.49;99292.84;7803169;32;38492;-81
2022/11/05 13:23:18;;;;;;;3.78;2.50;;;;;;;14.04;58.61;99299.34;7791330;32;35373;-82
2022/11/05 13:28:06;;;;;;;3.53;1.95;;;;;;;13.42;58.78;99304.41;7792992;32;39237;-81
2022/11/05 13:32:38;;;;;;;5.32;3.25;;;;;;;13.72;58.29;99313.97;7783859;32;39809;-82
2022/11/05 13:42:02;;;;;;;4.53;2.62;;;;;;;13.55;58.06;99321.97;7773779;32;37539;-82
2022/11/05 13:46:49;;;;;;;3.00;2.30;;;;;;;13.63;58.62;99332.22;7791566;32;38951;-82
2022/11/05 13:51:28;;;;;;;6.65;2.55;;;;;;;12.95;60.35;99345.41;7792722;32;40759;-82
2022/11/05 13:56:01;;;;;;;6.87;3.10;;;;;;;12.70;60.10;99344.72;7792618;32;38763;-82
2022/11/05 14:00:21;;;;;;;6.70;3.28;;;;;;;13.56;58.48;99340.03;7792658;32;37125;-81
2022/11/05 14:04:43;;;;;;;4.65;2.37;;;;;;;13.41;58.25;99346.59;7778999;32;40098;-81
2022/11/05 14:09:10;;;;;;;6.22;3.40;;;;;;;12.85;59.82;99356.53;7779182;32;39894;-82
2022/11/05 14:13:39;;;;;;;4.65;3.08;;;;;;;12.90;59.98;99360.00;7765799;32;39333;-82
2022/11/05 14:18:03;;;;;;;6.07;3.40;;;;;;;13.18;59.73;99351.06;7778630;32;36930;-82
2022/11/05 14:22:31;;;;;;;8.27;3.10;;;;;;;13.11;59.40;99362.41;7792401;32;40080;-81
2022/11/05 14:27:00;;;;;;;4.55;3.08;;;;;;;13.08;59.56;99361.06;7778050;32;39982;-82
2022/11/05 14:31:20;;;;;;;5.82;2.67;;;;;;;12.88;59.95;99361.41;7792114;32;38019;-82
2022/11/05 14:35:46;;;;;;;4.03;2.65;;;;;;;12.98;59.57;99371.38;7791173;32;36902;-82
2022/11/05 14:40:21;;;;;;;3.35;2.40;;;;;;;13.02;59.35;99372.41;7792066;32;39897;-81
2022/11/05 14:45:00;;;;;;;3.37;2.75;;;;;;;12.91;59.23;99377.22;7791969;32;40722;-82
2022/11/05 14:49:24;;;;;;;5.30;2.87;;;;;;;13.27;58.49;99385.66;7791907;32;37698;-82
2022/11/05 14:53:40;;;;;;;2.28;1.80;;;;;;;13.21;58.51;99394.25;7791951;32;37012;-82
2022/11/05 14:57:56;;;;;;;3.95;2.35;;;;;;;13.08;58.21;99396.66;7777833;32;40009;-82
2022/11/05 15:02:15;;;;;;;3.10;2.20;;;;;;;13.12;58.03;99400.44;7791748;32;39778;-82
2022/11/05 15:06:35;;;;;;;5.30;2.80;;;;;;;12.72;59.49;99408.13;7777939;32;37963;-83
2022/11/05 15:10:55;;;;;;;7.72;3.65;;;;;;;13.01;58.28;99406.37;7777586;32;37166;-83
2022/11/05 15:15:29;;;;;;;4.53;2.70;;;;;;;12.89;58.71;99407.63;7791546;32;39281;-82
2022/11/05 15:19:46;;;;;;;12.98;7.87;;;;;;;12.79;59.39;99421.44;7778115;32;40287;-82
2022/11/05 15:24:02;;;;;;;6.45;3.47;;;;;;;12.94;59.00;99414.94;7790907;32;37821;-82
2022/11/05 15:28:44;;;;;;;5.72;3.53;;;;;;;12.76;59.77;99430.22;7791090;32;36781;-82
2022/11/05 15:33:27;;;;;;;5.93;3.30;;;;;;;12.72;59.87;99440.16;7791036;32;39761;-83
2022/11/05 15:37:48;;;;;;;5.03;2.93;;;;;;;12.90;59.75;99441.25;7788314;32;39975;-82
2022/11/05 15:42:25;;;;;;;5.03;2.92;;;;;;;12.71;61.07;99439.34;7790734;32;38515;-82
2022/11/05 15:46:41;;;;;;;6.12;3.42;;;;;;;12.09;63.28;99443.91;7791180;32;36839;-82
2022/11/05 15:50:58;;;;;;;6.65;3.85;;;;;;;12.42;62.30;99452.28;7794206;32;40888;-82
2022/11/05 15:55:19;;;;;;;6.12;3.55;;;;;;;12.12;62.75;99459.72;7794062;32;39973;-82
2022/11/05 15:59:36;;;;;;;5.93;2.95;;;;;;;12.18;63.00;99453.94;7793970;32;39400;-82
2022/11/05 16:03:53;;;;;;;7.15;3.40;;;;;;;11.90;64.17;99461.03;7780153;32;36848;-82
2022/11/05 16:08:25;;;;;;;5.00;3.05;;;;;;;12.36;63.32;99459.72;7793956;32;39239;-82
2022/11/05 16:12:41;;;;;;;4.93;3.15;;;;;;;11.53;66.11;99472.56;7779906;32;40796;-83
2022/11/05 16:17:08;;;;;;;8.82;5.70;;;;;;;11.45;67.02;99469.34;7779966;32;38647;-83
2022/11/05 16:21:25;;;;;;;12.55;7.20;;;;;;;11.91;66.01;99470.06;7793975;32;36782;-83
2022/11/05 16:25:42;;;;;;;10.18;6.12;;;;;;;11.78;67.21;99476.97;7779663;32;39162;-83
2022/11/05 16:29:58;;;;;;;9.95;4.60;;;;;;;12.36;65.23;99473.41;7793781;32;40756;-83
2022/11/05 16:34:44;;;;;;;8.32;4.43;;;;;;;12.52;64.95;99479.50;7793578;32;38485;-83
2022/11/05 16:39:00;;;;;;;8.85;5.50;;;;;;;12.48;64.79;99483.94;7792488;32;37797;-82
2022/11/05 16:43:19;;;;;;;10.35;5.68;;;;;;;12.30;65.39;99497.25;7793590;32;39847;-82
2022/11/05 16:47:35;;;;;;;9.30;4.85;;;;;;;12.44;64.78;99494.62;7793520;32;40086;-83
2022/11/05 16:51:52;;;;;;;10.13;5.57;;;;;;;12.29;65.11;99503.81;7793404;32;38810;-82
2022/11/05 16:56:12;;;;;;;9.25;5.55;;;;;;;12.51;65.13;99513.44;7779387;32;36999;-81
2022/11/05 17:00:28;;;;;;;10.23;5.75;;;;;;;11.77;67.46;99510.88;7779409;32;39063;-81
2022/11/05 17:04:45;;;;;;;12.85;6.20;;;;;;;12.21;66.74;99516.22;7793357;32;39791;-81
2022/11/05 17:09:02;;;;;;;9.18;4.95;;;;;;;12.17;66.20;99520.59;7791843;32;37962;-81
2022/11/05 17:13:18;;;;;;;10.48;4.93;;;;;;;12.30;66.03;99523.78;7792800;32;36916;-82
2022/11/05 17:17:35;;;;;;;9.00;4.97;;;;;;;12.45;65.55;99533.72;7778868;32;39093;-81
2022/11/05 17:21:51;;;;;;;10.95;5.10;;;;;;;12.35;66.13;99542.88;7778951;32;40550;-81
2022/11/05 17:26:11;;;;;;;8.45;5.20;;;;;;;12.36;66.21;99550.75;7792378;32;37943;-82
2022/11/05 17:30:28;;;;;;;9.38;5.50;;;;;;;12.62;65.29;99546.94;7792715;32;37021;-81
2022/11/05 17:34:45;;;;;;;15.48;7.75;;;;;;;12.18;66.55;99548.78;7792703;32;39970;-81
2022/11/05 17:39:01;;;;;;;10.85;5.78;;;;;;;12.26;66.79;99559.06;7792659;32;39942;-79
2022/11/05 17:43:19;;;;;;;12.10;7.60;;;;;;;12.46;65.64;99562.69;7792496;32;38647;-81
2022/11/05 17:47:35;;;;;;;13.88;7.68;;;;;;;11.76;68.19;99572.88;7792814;32;36711;-81
2022/11/05 17:51:51;;;;;;;10.25;6.53;;;;;;;11.69;68.75;99568.81;7776851;32;39255;-81
2022/11/05 17:56:12;;;;;;;8.35;5.30;;;;;;;12.09;67.59;99564.13;7767897;32;39936;-81
2022/11/05 18:00:28;;;;;;;7.80;4.47;;;;;;;12.13;67.57;99570.69;7776902;32;38630;-78
2022/11/05 18:04:44;;;;;;;7.45;4.68;;;;;;;12.06;67.36;99570.19;7785087;32;36749;-81
2022/11/05 18:09:00;;;;;;;8.45;3.72;;;;;;;12.02;67.83;99559.84;7782303;32;39058;-82
2022/11/05 18:13:16;;;;;;;6.65;3.55;;;;;;;11.90;67.74;99575.75;7777456;32;40624;-81
2022/11/05 18:17:33;;;;;;;8.20;4.45;;;;;;;11.71;68.40;99577.53;7778285;32;37645;-81
2022/11/05 18:21:49;;;;;;;7.18;4.35;;;;;;;11.46;69.63;99590.28;7791151;32;36918;-80
2022/11/05 18:26:13;;;;;;;7.45;3.87;;;;;;;12.11;67.77;99589.28;7785918;32;39188;-81
2022/11/05 18:30:29;;;;;;;7.05;3.60;;;;;;;11.20;71.14;99586.88;7764325;32;39942;-80
2022/11/05 18:34:45;;;;;;;5.70;4.00;;;;;;;11.69;69.22;99583.28;7764272;32;37762;-80
2022/11/05 18:39:02;;;;;;;6.37;3.30;;;;;;;11.59;69.81;99584.19;7764285;32;37093;-80
2022/11/05 18:43:19;;;;;;;6.28;4.10;;;;;;;11.54;69.76;99597.87;7763752;32;39803;-81
2022/11/05 18:47:35;;;;;;;6.45;3.55;;;;;;;11.49;70.07;99600.62;7764296;32;41087;-80
2022/11/05 18:51:51;;;;;;;6.12;3.80;;;;;;;11.57;69.57;99608.22;7759792;32;38569;-80
2022/11/05 18:56:09;;;;;;;7.12;3.75;;;;;;;11.71;69.49;99613.03;7763846;32;37107;-80
2022/11/05 19:00:26;;;;;;;6.70;4.28;;;;;;;11.85;68.99;99608.59;7763803;32;38916;-80
2022/11/05 19:04:43;;;;;;;6.85;3.47;;;;;;;12.11;67.97;99617.41;7804014;32;39878;-81
2022/11/05 19:09:20;;;;;;;8.02;4.07;;;;;;;12.25;67.26;99623.03;7817554;32;38215;-80
2022/11/05 19:13:36;;;;;;;7.57;3.78;;;;;;;12.33;66.81;99618.84;7817615;32;36921;-81
2022/11/05 19:17:53;;;;;;;6.40;3.87;;;;;;;11.93;67.85;99638.03;7818049;32;38965;-80
2022/11/05 19:22:09;;;;;;;7.95;5.07;;;;;;;12.23;66.96;99636.19;7817148;32;39918;-80
2022/11/05 19:26:25;;;;;;;9.55;3.78;;;;;;;12.08;67.45;99645.31;7817340;32;38648;-80
2022/11/05 19:30:44;;;;;;;8.60;4.78;;;;;;;11.84;68.72;99656.09;7817674;32;35998;-79
2022/11/05 19:35:03;;;;;;;8.32;4.30;;;;;;;11.69;69.70;99654.28;7812493;32;39989;-79
2022/11/05 19:39:22;;;;;;;7.70;4.37;;;;;;;11.83;68.95;99666.22;7763012;32;39516;-80
2022/11/05 19:43:39;;;;;;;7.20;4.68;;;;;;;11.72;70.01;99674.75;7761224;32;37868;-80
2022/11/05 19:47:55;;;;;;;6.37;4.20;;;;;;;10.94;72.51;99693.34;7762787;32;36989;-80
2022/11/05 19:52:11;;;;;;;6.47;3.72;;;;;;;11.35;71.45;99681.47;7754378;32;40010;-80
2022/11/05 19:56:31;;;;;;;11.57;7.35;;;;;;;11.40;71.13;99692.38;7762366;32;40975;-80
2022/11/05 20:00:48;;;;;;;8.07;4.87;;;;;;;11.26;72.08;99703.91;7766493;32;38765;-80
2022/11/05 20:05:04;;;;;;;6.93;4.25;;;;;;;11.06;72.61;99706.69;7765354;32;36922;-80
2022/11/05 20:09:20;;;;;;;7.37;4.62;;;;;;;11.00;73.39;99708.59;7770894;32;39144;-81
2022/11/05 20:13:38;;;;;;;7.50;4.70;;;;;;;10.88;73.38;99716.28;7769758;32;40466;-80
2022/11/05 20:17:54;;;;;;;8.32;4.37;;;;;;;11.22;71.78;99721.91;7788825;32;38682;-81
2022/11/05 20:22:11;;;;;;;9.82;4.40;;;;;;;11.04;72.17;99725.25;7788115;32;36988;-80
2022/11/05 20:26:28;;;;;;;7.37;4.50;;;;;;;11.22;72.12;99726.56;7765681;32;39272;-81
2022/11/05 20:30:44;;;;;;;8.05;5.12;;;;;;;10.95;73.04;99729.63;7788547;32;39940;-80
2022/11/05 20:35:00;;;;;;;8.63;5.03;;;;;;;10.92;73.31;99736.47;7790266;32;36569;-79
2022/11/05 20:39:17;;;;;;;9.30;4.62;;;;;;;11.15;72.41;99732.31;7791906;32;36934;-78
2022/11/05 20:43:33;;;;;;;8.27;4.87;;;;;;;11.12;72.06;99749.22;7791807;32;39930;-79
2022/11/05 20:47:49;;;;;;;10.18;4.97;;;;;;;11.31;71.51;99752.19;7779302;32;40032;-80
2022/11/05 20:52:05;;;;;;;8.05;4.90;;;;;;;11.66;70.35;99750.44;7779447;32;37879;-81
2022/11/05 20:56:25;;;;;;;11.35;5.47;;;;;;;11.36;71.22;99748.63;7793349;32;36988;-81
2022/11/05 21:00:52;;;;;;;11.95;5.55;;;;;;;11.31;71.73;99757.63;7793198;32;39325;-79
2022/11/05 21:05:08;;;;;;;10.20;5.18;;;;;;;11.01;72.50;99758.53;7796225;32;39712;-74
2022/11/05 21:09:25;;;;;;;8.60;4.90;;;;;;;11.62;70.73;99763.84;7793168;32;38430;-80
2022/11/05 21:13:41;;;;;;;7.97;4.68;;;;;;;11.56;71.17;99758.66;7792900;32;37631;-79